createdAt,value
2019-03-31T00:01:18.756Z,27.59
2019-03-31T00:03:47.016Z,27.60
2019-03-31T00:06:15.275Z,26.91
2019-03-31T00:08:43.558Z,27.03
2019-03-31T00:11:11.981Z,26.92
2019-03-31T00:13:40.238Z,27.61
2019-03-31T00:16:08.510Z,26.58
2019-03-31T00:18:36.797Z,28.31
2019-03-31T00:21:05.135Z,27.90
2019-03-31T00:23:33.392Z,26.68
2019-03-31T00:26:01.656Z,26.58
2019-03-31T00:28:29.950Z,26.19
2019-03-31T00:30:58.215Z,26.27
2019-03-31T00:33:26.502Z,26.27
2019-03-31T00:35:54.871Z,26.27
2019-03-31T00:38:23.140Z,26.17
2019-03-31T00:40:51.386Z,26.63
2019-03-31T00:43:19.760Z,26.14
2019-03-31T00:45:48.031Z,26.02
2019-03-31T00:48:16.299Z,26.59
2019-03-31T00:50:44.572Z,26.53
2019-03-31T00:53:13.873Z,26.18
2019-03-31T00:55:42.158Z,26.51
2019-03-31T00:58:10.409Z,26.36
2019-03-31T01:00:46.311Z,26.55
2019-03-31T01:03:15.126Z,26.41
2019-03-31T01:05:44.166Z,25.84
2019-03-31T01:08:13.028Z,26.13
2019-03-31T01:10:42.620Z,26.13
2019-03-31T01:13:11.269Z,26.10
2019-03-31T01:15:39.622Z,26.43
2019-03-31T01:18:08.665Z,26.98
2019-03-31T01:20:36.924Z,27.92
2019-03-31T01:23:05.577Z,27.60
2019-03-31T01:25:33.847Z,27.68
2019-03-31T01:28:02.121Z,27.38
2019-03-31T01:30:30.376Z,27.51
2019-03-31T01:32:58.920Z,27.42
2019-03-31T01:35:27.237Z,27.57
2019-03-31T01:37:55.741Z,26.78
2019-03-31T01:40:24.013Z,26.05
2019-03-31T01:42:52.278Z,26.38
2019-03-31T01:45:20.698Z,25.83
2019-03-31T01:47:48.986Z,26.35
2019-03-31T01:50:17.307Z,26.88
2019-03-31T01:52:45.586Z,27.18
2019-03-31T01:55:13.877Z,27.56
2019-03-31T01:57:42.120Z,27.35
2019-03-31T02:00:12.471Z,26.40
2019-03-31T02:02:40.739Z,25.90
2019-03-31T02:05:09.092Z,26.74
2019-03-31T02:07:37.408Z,27.09
2019-03-31T02:10:06.770Z,27.14
2019-03-31T02:12:35.041Z,27.10
2019-03-31T02:15:05.543Z,26.41
2019-03-31T02:17:33.807Z,26.46
2019-03-31T02:20:02.072Z,26.27
2019-03-31T02:22:30.352Z,25.62
2019-03-31T02:24:58.611Z,26.26
2019-03-31T02:27:26.942Z,25.88
2019-03-31T02:29:55.207Z,26.04
2019-03-31T02:32:24.797Z,25.98
2019-03-31T02:34:53.411Z,25.76
2019-03-31T02:37:21.665Z,25.81
2019-03-31T02:39:49.930Z,27.10
2019-03-31T02:42:18.202Z,27.26
2019-03-31T02:44:46.457Z,27.66
2019-03-31T02:47:14.764Z,26.95
2019-03-31T02:49:42.984Z,25.96
2019-03-31T02:52:11.429Z,26.83
2019-03-31T02:54:39.781Z,26.49
2019-03-31T02:57:08.313Z,25.97
2019-03-31T02:59:36.935Z,26.15
2019-03-31T03:02:05.198Z,27.66
2019-03-31T03:04:34.131Z,29.29
2019-03-31T03:07:03.857Z,28.05
2019-03-31T03:09:32.976Z,27.93
2019-03-31T03:12:01.616Z,27.82
2019-03-31T03:14:33.082Z,27.54
2019-03-31T03:17:01.356Z,27.43
2019-03-31T03:19:29.624Z,28.92
2019-03-31T03:21:57.895Z,28.86
2019-03-31T03:24:26.150Z,28.96
2019-03-31T03:26:54.419Z,27.99
2019-03-31T03:29:22.689Z,27.64
2019-03-31T03:31:51.193Z,27.81
2019-03-31T03:34:19.492Z,27.42
2019-03-31T03:36:47.741Z,27.02
2019-03-31T03:39:15.999Z,27.71
2019-03-31T03:41:44.391Z,28.52
2019-03-31T03:44:12.652Z,29.09
2019-03-31T03:46:40.920Z,28.58
2019-03-31T03:49:09.335Z,28.52
2019-03-31T03:51:37.710Z,27.92
2019-03-31T03:54:06.047Z,29.62
2019-03-31T03:56:34.297Z,28.25
2019-03-31T03:59:02.562Z,28.09
2019-03-31T04:01:31.880Z,29.25
2019-03-31T04:04:00.153Z,28.91
2019-03-31T04:06:28.412Z,29.20
2019-03-31T04:08:56.667Z,29.56
2019-03-31T04:11:25.266Z,28.84
2019-03-31T04:13:53.590Z,30.67
2019-03-31T04:16:21.916Z,28.83
2019-03-31T04:18:50.169Z,29.08
2019-03-31T04:21:18.442Z,28.77
2019-03-31T04:23:46.709Z,29.50
2019-03-31T04:26:15.044Z,28.10
2019-03-31T04:28:43.373Z,28.41
2019-03-31T04:31:11.618Z,29.80
2019-03-31T04:33:50.714Z,30.05
2019-03-31T04:36:09.859Z,29.41
2019-03-31T04:38:38.124Z,30.77
2019-03-31T04:41:06.391Z,29.96
2019-03-31T04:43:34.780Z,28.96
2019-03-31T04:46:03.040Z,29.26
2019-03-31T04:48:31.302Z,29.05
2019-03-31T04:50:59.565Z,29.61
2019-03-31T04:53:27.808Z,29.58
2019-03-31T04:55:56.062Z,28.63
2019-03-31T04:58:24.325Z,29.00
2019-03-31T05:00:52.574Z,28.83
2019-03-31T05:03:20.822Z,29.47
2019-03-31T05:05:49.100Z,29.10
2019-03-31T05:08:17.352Z,29.95
2019-03-31T05:10:45.616Z,30.00
2019-03-31T05:13:13.872Z,30.35
2019-03-31T05:15:42.126Z,29.26
2019-03-31T05:18:10.395Z,29.15
2019-03-31T05:20:38.659Z,30.15
2019-03-31T05:23:06.932Z,29.73
2019-03-31T05:25:35.177Z,29.84
2019-03-31T05:28:03.435Z,29.47
2019-03-31T05:30:31.690Z,29.65
2019-03-31T05:33:00.430Z,29.13
2019-03-31T05:35:28.683Z,28.87
2019-03-31T05:37:56.994Z,31.38
2019-03-31T05:40:25.256Z,30.20
2019-03-31T05:42:53.528Z,29.35
2019-03-31T05:45:21.792Z,30.89
2019-03-31T05:47:50.040Z,32.24
2019-03-31T05:50:18.340Z,29.14
2019-03-31T05:52:46.593Z,29.14
2019-03-31T05:55:14.860Z,28.84
2019-03-31T05:57:43.112Z,28.46
2019-03-31T06:00:11.363Z,28.81
2019-03-31T06:02:39.644Z,28.32
2019-03-31T06:05:07.898Z,29.82
2019-03-31T06:07:36.168Z,28.78
2019-03-31T06:10:06.480Z,28.27
2019-03-31T06:12:34.798Z,27.92
2019-03-31T06:15:03.128Z,28.30
2019-03-31T06:17:31.377Z,28.27
2019-03-31T06:19:59.664Z,28.03
2019-03-31T06:22:27.944Z,29.03
2019-03-31T06:24:56.213Z,30.17
2019-03-31T06:27:24.470Z,30.38
2019-03-31T06:29:52.744Z,28.83
2019-03-31T06:32:21.012Z,27.85
2019-03-31T06:34:49.281Z,28.53
2019-03-31T06:37:17.552Z,29.12
2019-03-31T06:39:45.809Z,29.38
2019-03-31T06:42:14.066Z,31.03
2019-03-31T06:44:42.333Z,28.96
2019-03-31T06:47:10.609Z,29.21
2019-03-31T06:49:38.873Z,28.37
2019-03-31T06:52:07.122Z,29.04
2019-03-31T06:54:35.402Z,29.19
2019-03-31T06:57:03.663Z,27.77
2019-03-31T06:59:31.911Z,28.04
2019-03-31T07:02:03.020Z,28.50
2019-03-31T07:04:30.173Z,27.81
2019-03-31T07:06:58.431Z,27.91
2019-03-31T07:09:26.915Z,27.41
2019-03-31T07:11:55.199Z,27.08
2019-03-31T07:14:23.488Z,26.61
2019-03-31T07:16:51.745Z,26.19
2019-03-31T07:19:20.023Z,26.62
2019-03-31T07:21:48.282Z,26.63
2019-03-31T07:24:16.549Z,29.68
2019-03-31T07:26:44.838Z,28.42
2019-03-31T07:29:13.104Z,28.52
2019-03-31T07:31:41.403Z,28.80
2019-03-31T07:34:09.665Z,28.09
2019-03-31T07:36:37.932Z,27.91
2019-03-31T07:39:06.905Z,29.48
2019-03-31T07:41:36.216Z,30.35
2019-03-31T07:44:04.500Z,29.33
2019-03-31T07:46:32.769Z,28.64
2019-03-31T07:49:01.048Z,29.79
2019-03-31T07:51:29.327Z,29.59
2019-03-31T07:53:57.626Z,29.80
2019-03-31T07:56:25.911Z,29.22
2019-03-31T07:58:54.218Z,28.25
2019-03-31T08:01:22.445Z,27.81
2019-03-31T08:03:50.708Z,27.98
2019-03-31T08:06:18.983Z,27.84
2019-03-31T08:08:47.239Z,27.00
2019-03-31T08:11:17.071Z,27.14
2019-03-31T08:13:45.588Z,27.63
2019-03-31T08:16:13.858Z,27.60
2019-03-31T08:18:42.128Z,26.66
2019-03-31T08:21:10.393Z,26.47
2019-03-31T08:23:38.669Z,27.12
2019-03-31T08:26:06.933Z,26.35
2019-03-31T08:28:35.199Z,26.05
2019-03-31T08:31:03.474Z,25.92
2019-03-31T08:33:31.725Z,25.71
2019-03-31T08:36:00.013Z,26.29
2019-03-31T08:38:28.280Z,26.70
2019-03-31T08:40:56.538Z,26.90
2019-03-31T08:43:24.869Z,26.14
2019-03-31T08:45:53.124Z,27.13
2019-03-31T08:48:21.399Z,25.62
2019-03-31T08:50:49.678Z,24.48
2019-03-31T08:53:17.945Z,24.83
2019-03-31T08:55:46.268Z,25.50
2019-03-31T08:58:14.504Z,24.91
2019-03-31T09:00:44.411Z,24.75
2019-03-31T09:03:12.681Z,24.26
2019-03-31T09:05:41.229Z,23.74
2019-03-31T09:08:09.471Z,24.06
2019-03-31T09:10:37.739Z,24.18
2019-03-31T09:13:06.109Z,23.66
2019-03-31T09:15:34.370Z,24.69
2019-03-31T09:18:02.629Z,24.30
2019-03-31T09:20:30.917Z,23.74
2019-03-31T09:22:59.183Z,25.61
2019-03-31T09:25:27.446Z,25.05
2019-03-31T09:27:55.741Z,25.28
2019-03-31T09:30:24.020Z,25.35
2019-03-31T09:32:52.288Z,24.54
2019-03-31T09:35:20.558Z,24.35
2019-03-31T09:37:48.847Z,23.20
2019-03-31T09:40:17.976Z,23.28
2019-03-31T09:42:46.234Z,22.31
2019-03-31T09:45:14.881Z,22.31
2019-03-31T09:47:43.163Z,22.34
2019-03-31T09:50:16.985Z,21.92
2019-03-31T09:52:43.758Z,23.50
2019-03-31T09:55:12.096Z,23.42
2019-03-31T09:57:40.370Z,23.25
2019-03-31T10:00:11.147Z,22.79
2019-03-31T10:02:39.541Z,22.06
2019-03-31T10:05:07.942Z,22.07
2019-03-31T10:07:36.314Z,22.54
2019-03-31T10:10:10.847Z,23.17
2019-03-31T10:12:39.106Z,22.12
2019-03-31T10:15:08.828Z,23.64
2019-03-31T10:17:37.103Z,23.32
2019-03-31T10:20:06.826Z,23.22
2019-03-31T10:22:35.092Z,22.55
2019-03-31T10:25:04.615Z,22.93
2019-03-31T10:27:32.895Z,23.62
2019-03-31T10:30:01.178Z,22.97
2019-03-31T10:32:29.453Z,23.77
2019-03-31T10:34:57.741Z,22.85
2019-03-31T10:37:27.543Z,22.94
2019-03-31T10:39:55.821Z,21.54
2019-03-31T10:42:24.106Z,20.97
2019-03-31T10:44:52.398Z,20.94
2019-03-31T10:47:20.665Z,20.14
2019-03-31T10:49:48.955Z,19.99
2019-03-31T10:52:17.211Z,20.13
2019-03-31T10:54:45.474Z,20.13
2019-03-31T10:57:13.782Z,19.82
2019-03-31T10:59:42.070Z,19.92
2019-03-31T11:02:10.360Z,19.88
2019-03-31T11:04:38.644Z,19.92
2019-03-31T11:07:06.942Z,19.29
2019-03-31T11:09:35.228Z,19.45
2019-03-31T11:12:03.511Z,19.36
2019-03-31T11:14:31.812Z,20.20
2019-03-31T11:17:00.090Z,18.71
2019-03-31T11:19:28.349Z,19.11
2019-03-31T11:22:01.218Z,18.65
2019-03-31T11:24:29.524Z,19.23
2019-03-31T11:26:57.779Z,19.18
2019-03-31T11:29:26.057Z,20.49
2019-03-31T11:31:54.332Z,19.60
2019-03-31T11:34:22.601Z,19.08
2019-03-31T11:36:50.891Z,17.88
2019-03-31T11:39:19.183Z,18.27
2019-03-31T11:41:47.455Z,18.00
2019-03-31T11:44:15.792Z,18.10
2019-03-31T11:46:44.094Z,18.29
2019-03-31T11:49:12.394Z,17.75
2019-03-31T11:51:40.679Z,17.88
2019-03-31T11:54:08.955Z,17.68
2019-03-31T11:56:37.235Z,17.18
2019-03-31T11:59:05.532Z,19.26
2019-03-31T12:01:33.810Z,18.31
2019-03-31T12:04:02.079Z,17.92
2019-03-31T12:06:30.347Z,17.46
2019-03-31T12:08:58.625Z,18.68
2019-03-31T12:11:26.993Z,19.26
2019-03-31T12:13:56.211Z,19.59
2019-03-31T12:16:27.613Z,18.71
2019-03-31T12:18:56.007Z,18.49
2019-03-31T12:21:24.360Z,19.62
2019-03-31T12:23:52.641Z,19.88
2019-03-31T12:26:20.924Z,19.73
2019-03-31T12:28:49.203Z,18.90
2019-03-31T12:31:17.494Z,19.31
2019-03-31T12:33:45.771Z,18.26
2019-03-31T12:36:14.175Z,17.09
2019-03-31T12:38:42.481Z,15.99
2019-03-31T12:41:10.734Z,15.25
2019-03-31T12:43:39.076Z,15.35
2019-03-31T12:46:07.380Z,15.42
2019-03-31T12:48:35.637Z,15.35
2019-03-31T12:51:04.023Z,14.71
2019-03-31T12:53:32.279Z,14.65
2019-03-31T12:56:00.802Z,13.74
2019-03-31T12:58:29.187Z,13.58
2019-03-31T13:00:57.531Z,14.10
2019-03-31T13:03:25.813Z,14.47
2019-03-31T13:05:54.074Z,15.39
2019-03-31T13:08:22.331Z,16.08
2019-03-31T13:10:50.685Z,15.75
2019-03-31T13:13:18.951Z,15.07
2019-03-31T13:15:47.231Z,13.84
2019-03-31T13:18:15.534Z,14.37
2019-03-31T13:20:43.898Z,15.54
2019-03-31T13:23:12.167Z,14.72
2019-03-31T13:25:40.465Z,14.20
2019-03-31T13:28:08.713Z,14.04
2019-03-31T13:30:36.980Z,14.63
2019-03-31T13:33:05.317Z,14.48
2019-03-31T13:35:33.673Z,13.47
2019-03-31T13:38:11.020Z,13.13
2019-03-31T13:40:31.926Z,14.24
2019-03-31T13:43:00.318Z,13.76
2019-03-31T13:45:28.589Z,13.94
2019-03-31T13:47:58.684Z,14.57
2019-03-31T13:50:26.835Z,13.27
2019-03-31T13:52:55.085Z,12.78
2019-03-31T13:55:23.377Z,12.50
2019-03-31T13:57:52.774Z,13.02
2019-03-31T14:00:36.023Z,13.03
2019-03-31T14:03:04.515Z,12.41
2019-03-31T14:05:32.778Z,12.32
2019-03-31T14:08:01.042Z,11.55
2019-03-31T14:10:29.382Z,11.85
2019-03-31T14:12:57.650Z,12.26
2019-03-31T14:15:25.918Z,12.61
2019-03-31T14:17:54.214Z,12.17
2019-03-31T14:20:22.530Z,11.51
2019-03-31T14:22:51.079Z,13.54
2019-03-31T14:25:19.382Z,14.14
2019-03-31T14:27:48.622Z,14.33
2019-03-31T14:30:19.335Z,13.19
2019-03-31T14:32:47.682Z,12.67
2019-03-31T14:35:16.028Z,12.67
2019-03-31T14:37:44.305Z,11.67
2019-03-31T14:40:12.569Z,10.68
2019-03-31T14:42:40.859Z,11.22
2019-03-31T14:45:10.828Z,11.15
2019-03-31T14:47:39.124Z,11.98
2019-03-31T14:50:07.466Z,11.25
2019-03-31T14:52:35.749Z,11.03
2019-03-31T14:55:04.764Z,10.96
2019-03-31T14:57:33.031Z,10.75
2019-03-31T15:00:13.967Z,11.05
2019-03-31T15:02:31.307Z,11.05
2019-03-31T15:04:59.574Z,10.56
2019-03-31T15:07:27.891Z,11.55
2019-03-31T15:09:56.132Z,11.34
2019-03-31T15:12:24.406Z,12.34
2019-03-31T15:14:52.680Z,14.42
2019-03-31T15:17:20.961Z,14.42
2019-03-31T15:19:49.245Z,13.17
2019-03-31T15:22:17.492Z,13.16
2019-03-31T15:24:45.770Z,12.56
2019-03-31T15:27:14.053Z,13.24
2019-03-31T15:29:42.391Z,13.36
2019-03-31T15:32:10.681Z,14.45
2019-03-31T15:34:38.951Z,13.68
2019-03-31T15:37:07.220Z,14.22
2019-03-31T15:39:35.491Z,15.93
2019-03-31T15:42:03.783Z,16.12
2019-03-31T15:44:32.046Z,16.03
2019-03-31T15:47:00.325Z,15.53
2019-03-31T15:49:28.605Z,16.42
2019-03-31T15:51:56.877Z,16.45
2019-03-31T15:54:25.172Z,16.62
2019-03-31T15:56:53.472Z,18.32
2019-03-31T15:59:21.763Z,17.98
2019-03-31T16:01:50.047Z,18.24
2019-03-31T16:04:18.335Z,18.70
2019-03-31T16:06:46.685Z,19.18
2019-03-31T16:09:23.362Z,20.06
2019-03-31T16:11:53.757Z,22.24
2019-03-31T16:14:14.986Z,22.96
2019-03-31T16:16:43.277Z,22.71
2019-03-31T16:19:11.569Z,23.05
2019-03-31T16:21:39.892Z,22.11
2019-03-31T16:24:08.104Z,22.76
2019-03-31T16:26:36.512Z,22.77
2019-03-31T16:29:04.882Z,23.10
2019-03-31T16:31:33.174Z,23.68
2019-03-31T16:34:01.440Z,23.75
2019-03-31T16:36:29.714Z,24.38
2019-03-31T16:38:57.991Z,25.86
2019-03-31T16:41:26.273Z,25.38
2019-03-31T16:43:54.574Z,23.93
2019-03-31T16:46:22.861Z,23.80
2019-03-31T16:48:51.157Z,25.22
2019-03-31T16:51:19.436Z,25.35
2019-03-31T16:53:47.749Z,25.29
2019-03-31T16:56:16.023Z,25.04
2019-03-31T16:58:44.312Z,26.06
2019-03-31T17:01:12.600Z,25.40
2019-03-31T17:03:44.711Z,25.12
2019-03-31T17:06:13.823Z,24.80
2019-03-31T17:08:42.169Z,25.50
2019-03-31T17:11:10.469Z,25.41
2019-03-31T17:13:38.766Z,24.52
2019-03-31T17:16:07.043Z,23.81
2019-03-31T17:18:35.416Z,24.78
2019-03-31T17:21:03.706Z,24.52
2019-03-31T17:23:31.986Z,24.18
2019-03-31T17:26:00.263Z,25.88
2019-03-31T17:28:28.566Z,26.16
2019-03-31T17:30:56.831Z,25.63
2019-03-31T17:33:25.128Z,25.23
2019-03-31T17:35:53.406Z,24.49
2019-03-31T17:38:21.694Z,24.84
2019-03-31T17:40:49.984Z,24.83
2019-03-31T17:43:18.320Z,24.75
2019-03-31T17:45:46.572Z,25.37
2019-03-31T17:48:14.898Z,24.68
2019-03-31T17:50:43.180Z,25.43
2019-03-31T17:53:11.460Z,25.16
2019-03-31T17:55:39.746Z,25.27
2019-03-31T17:58:08.016Z,25.94
2019-03-31T18:00:36.327Z,25.75
2019-03-31T18:03:04.666Z,25.22
2019-03-31T18:05:32.953Z,25.79
2019-03-31T18:08:01.217Z,25.74
2019-03-31T18:10:29.511Z,25.71
2019-03-31T18:12:57.783Z,26.46
2019-03-31T18:15:26.090Z,26.17
2019-03-31T18:17:54.366Z,26.68
2019-03-31T18:20:22.647Z,27.51
2019-03-31T18:22:50.934Z,27.17
2019-03-31T18:25:19.211Z,26.72
2019-03-31T18:27:47.498Z,25.53
2019-03-31T18:30:16.121Z,26.41
2019-03-31T18:32:44.401Z,27.81
2019-03-31T18:35:12.686Z,26.07
2019-03-31T18:37:40.963Z,25.43
2019-03-31T18:40:09.643Z,26.85
2019-03-31T18:42:37.999Z,26.37
2019-03-31T18:45:07.033Z,26.04
2019-03-31T18:47:35.301Z,27.22
2019-03-31T18:50:05.512Z,29.15
2019-03-31T18:52:33.818Z,29.20
2019-03-31T18:55:03.749Z,28.30
2019-03-31T18:57:33.688Z,28.83
2019-03-31T19:00:03.611Z,27.61
2019-03-31T19:02:45.587Z,25.29
2019-03-31T19:05:33.488Z,26.36
2019-03-31T19:08:19.493Z,25.86
2019-03-31T19:11:05.615Z,24.54
2019-03-31T19:13:35.536Z,24.52
2019-03-31T19:16:11.247Z,25.33
2019-03-31T19:18:56.524Z,25.00
2019-03-31T19:21:26.461Z,24.75
2019-03-31T19:23:56.376Z,25.38
2019-03-31T19:26:26.290Z,25.80
2019-03-31T19:29:02.202Z,24.91
2019-03-31T19:31:41.315Z,27.20
2019-03-31T19:34:14.186Z,26.70
2019-03-31T19:37:00.288Z,25.08
2019-03-31T19:39:36.210Z,25.62
2019-03-31T19:42:11.896Z,27.02
2019-03-31T19:44:50.687Z,26.23
2019-03-31T19:47:29.368Z,27.22
2019-03-31T19:49:59.293Z,26.35
2019-03-31T19:52:37.957Z,26.71
2019-03-31T19:55:23.571Z,27.15
2019-03-31T19:58:11.721Z,27.02
2019-03-31T20:00:57.651Z,26.82
2019-03-31T20:03:39.547Z,27.87
2019-03-31T20:06:25.640Z,27.92
2019-03-31T20:09:11.751Z,27.78
2019-03-31T20:11:44.498Z,27.34
2019-03-31T20:14:14.430Z,27.91
2019-03-31T20:16:54.347Z,27.52
2019-03-31T20:19:40.416Z,27.24
2019-03-31T20:22:22.269Z,28.21
2019-03-31T20:25:00.852Z,28.76
2019-03-31T20:27:36.599Z,28.00
2019-03-31T20:30:07.582Z,27.36
2019-03-31T20:32:37.491Z,28.01
2019-03-31T20:35:08.575Z,27.77
2019-03-31T20:37:47.522Z,27.41
2019-03-31T20:40:20.216Z,27.08
2019-03-31T20:42:50.147Z,27.93
2019-03-31T20:45:18.456Z,26.97
2019-03-31T20:47:46.729Z,27.07
2019-03-31T20:50:16.358Z,26.87
2019-03-31T20:52:44.634Z,27.29
2019-03-31T20:55:16.679Z,27.17
2019-03-31T20:57:43.027Z,28.18
2019-03-31T21:00:11.534Z,29.23
2019-03-31T21:02:39.835Z,29.74
2019-03-31T21:05:08.264Z,29.88
2019-03-31T21:07:36.550Z,29.49
2019-03-31T21:10:06.493Z,30.08
2019-03-31T21:12:34.789Z,29.79
2019-03-31T21:15:03.087Z,29.50
2019-03-31T21:17:31.401Z,29.69
2019-03-31T21:19:59.745Z,29.58
2019-03-31T21:22:28.032Z,28.05
2019-03-31T21:24:56.303Z,27.70
2019-03-31T21:27:26.278Z,28.02
2019-03-31T21:29:54.567Z,28.34
2019-03-31T21:32:22.828Z,27.33
2019-03-31T21:34:51.201Z,26.78
2019-03-31T21:37:19.469Z,27.69
2019-03-31T21:39:47.772Z,28.79
2019-03-31T21:42:16.171Z,27.85
2019-03-31T21:44:44.458Z,27.09
2019-03-31T21:47:12.730Z,28.42
2019-03-31T21:49:41.036Z,27.37
2019-03-31T21:52:09.302Z,27.40
2019-03-31T21:54:37.649Z,26.75
2019-03-31T21:57:05.920Z,28.01
2019-03-31T21:59:34.212Z,27.26
2019-03-31T22:02:02.483Z,27.33
2019-03-31T22:04:30.780Z,27.05
2019-03-31T22:06:59.043Z,26.61
2019-03-31T22:09:27.333Z,26.26
2019-03-31T22:11:55.618Z,26.50
2019-03-31T22:14:23.893Z,27.24
2019-03-31T22:16:52.183Z,26.80
2019-03-31T22:19:20.473Z,27.92
2019-03-31T22:21:48.754Z,26.89
2019-03-31T22:24:17.026Z,26.97
2019-03-31T22:26:45.323Z,27.60
2019-03-31T22:29:13.598Z,26.57
2019-03-31T22:31:41.899Z,28.30
2019-03-31T22:34:10.221Z,27.92
2019-03-31T22:36:38.488Z,27.70
2019-03-31T22:39:07.935Z,26.69
2019-03-31T22:41:36.361Z,28.38
2019-03-31T22:44:04.913Z,27.56
2019-03-31T22:46:33.191Z,28.51
2019-03-31T22:49:01.469Z,27.15
2019-03-31T22:51:29.732Z,26.56
2019-03-31T22:53:58.006Z,26.90
2019-03-31T22:56:26.285Z,27.87
2019-03-31T22:58:54.551Z,28.26
2019-03-31T23:01:22.989Z,28.03
2019-03-31T23:03:51.257Z,28.72
2019-03-31T23:06:19.534Z,27.27
2019-03-31T23:08:47.805Z,27.39
2019-03-31T23:11:16.072Z,28.53
2019-03-31T23:13:44.354Z,27.71
2019-03-31T23:16:12.697Z,28.51
2019-03-31T23:18:41.046Z,28.48
2019-03-31T23:21:09.310Z,28.73
2019-03-31T23:23:37.581Z,27.74
2019-03-31T23:26:05.871Z,28.03
2019-03-31T23:28:35.811Z,27.93
2019-03-31T23:31:04.393Z,27.68
2019-03-31T23:33:32.669Z,27.84
2019-03-31T23:36:00.937Z,27.31
2019-03-31T23:38:29.203Z,27.23
2019-03-31T23:40:57.480Z,27.25
2019-03-31T23:43:25.805Z,28.07
2019-03-31T23:45:54.092Z,28.04
2019-03-31T23:48:22.431Z,28.23
2019-03-31T23:50:50.706Z,29.01
2019-03-31T23:53:18.979Z,29.32
2019-03-31T23:55:47.242Z,27.65
2019-03-31T23:58:15.535Z,28.05
